Time;durP1;ratioP1;P1;durP2;ratioP2;P2;SDS_P1;SDS_P2;PMS_P1;PMS_P2;Temp;Humidity;BMP_temperature;BMP_pressure;BME280_temperature;BME280_humidity;BME280_pressure;Samples;Min_cycle;Max_cycle;Signal;HPM_P1;HPM_P2
2022/02/01 00:03:01;;;;;;;5.70;2.10;;;;;;;-0.09;100.00;96704.41;4998432;28;20046;-63
2022/02/01 00:05:34;;;;;;;5.97;2.38;;;;;;;0.11;100.00;96702.41;4997291;28;20077;-63
2022/02/01 00:37:31;;;;;;;5.95;2.15;;;;;;;0.36;100.00;96688.44;4996819;28;20045;-66
2022/02/01 00:39:59;;;;;;;6.10;1.77;;;;;;;0.40;100.00;96691.34;5000315;28;20510;-64
2022/02/01 00:42:24;;;;;;;3.70;2.30;;;;;;;0.34;100.00;96679.88;4995023;28;20552;-66
2022/02/01 00:44:50;;;;;;;3.40;2.13;;;;;;;0.45;100.00;96676.94;4999615;28;20513;-64
2022/02/01 00:47:16;;;;;;;7.85;2.50;;;;;;;0.43;100.00;96689.94;4995170;28;20600;-66
2022/02/01 00:49:42;;;;;;;5.07;2.20;;;;;;;0.50;100.00;96693.81;5000388;28;20042;-64
2022/02/01 00:52:07;;;;;;;4.32;2.30;;;;;;;0.51;100.00;96690.03;4991274;28;20037;-66
2022/02/01 00:54:33;;;;;;;5.35;2.60;;;;;;;0.43;100.00;96687.22;4999802;28;20037;-65
2022/02/01 00:56:58;;;;;;;5.05;2.28;;;;;;;0.47;100.00;96683.66;5000001;28;20042;-66
2022/02/01 00:59:25;;;;;;;4.07;1.70;;;;;;;0.52;100.00;96688.13;4994116;28;20518;-66
2022/02/01 01:01:51;;;;;;;3.83;2.10;;;;;;;0.41;100.00;96700.22;5000561;28;20034;-65
2022/02/01 01:04:16;;;;;;;7.68;2.22;;;;;;;0.59;100.00;96696.59;4995098;28;20038;-66
2022/02/01 01:06:41;;;;;;;5.00;2.20;;;;;;;0.54;100.00;96700.22;4999965;28;20420;-66
2022/02/01 01:09:07;;;;;;;3.78;2.70;;;;;;;0.60;100.00;96705.50;4995261;28;20491;-67
2022/02/01 01:11:32;;;;;;;5.05;2.10;;;;;;;0.61;100.00;96712.47;5000285;28;20126;-65
2022/02/01 01:43:48;;;;;;;7.82;1.80;;;;;;;0.79;100.00;96781.63;5001181;28;20420;-65
2022/02/01 01:54:20;;;;;;;2.70;1.70;;;;;;;0.58;100.00;96781.25;4998585;28;20046;-65
2022/02/01 01:56:46;;;;;;;2.58;1.70;;;;;;;0.47;100.00;96793.31;5006722;28;20049;-67
2022/02/01 01:59:12;;;;;;;4.05;1.73;;;;;;;0.55;100.00;96789.94;5006250;28;20395;-65
2022/02/01 02:01:38;;;;;;;4.25;1.55;;;;;;;0.44;100.00;96802.81;5000789;28;20049;-62
2022/02/01 02:04:06;;;;;;;4.32;2.20;;;;;;;0.41;100.00;96803.41;4997507;28;20045;-61
2022/02/01 02:06:31;;;;;;;6.78;1.73;;;;;;;0.49;100.00;96801.94;4999861;28;20046;-65
2022/02/01 02:09:02;;;;;;;4.28;1.92;;;;;;;0.56;100.00;96815.81;5002410;28;20794;-67
2022/02/01 02:16:50;;;;;;;2.67;1.58;;;;;;;0.61;100.00;96842.63;5003455;28;20046;-64
2022/02/01 02:19:16;;;;;;;3.33;1.75;;;;;;;0.70;100.00;96843.56;4998682;28;20132;-66
2022/02/01 02:21:49;;;;;;;3.33;1.50;;;;;;;0.69;100.00;96857.34;4999264;28;20125;-66
2022/02/01 02:24:15;;;;;;;5.00;1.73;;;;;;;0.69;100.00;96851.94;4997964;28;20048;-66
2022/02/01 02:26:41;;;;;;;3.13;1.30;;;;;;;0.83;100.00;96852.75;5002872;28;20049;-64
2022/02/01 02:29:07;;;;;;;4.68;1.80;;;;;;;0.76;100.00;96866.63;4996055;28;20034;-63
2022/02/01 02:31:34;;;;;;;4.32;1.60;;;;;;;0.81;100.00;96864.91;5014253;28;20423;-64
2022/02/01 02:34:03;;;;;;;4.30;1.77;;;;;;;0.75;100.00;96865.00;5001732;28;20046;-67
2022/02/01 02:36:28;;;;;;;2.03;1.27;;;;;;;0.70;100.00;96870.53;4995787;28;20791;-66
2022/02/01 02:39:00;;;;;;;4.70;1.90;;;;;;;0.70;100.00;96875.91;5003058;28;20355;-64
2022/02/01 02:46:40;;;;;;;2.03;1.30;;;;;;;0.86;100.00;96881.00;5000092;28;20519;-66
2022/02/01 02:49:08;;;;;;;8.23;1.50;;;;;;;0.86;100.00;96862.91;4978862;28;20470;-63
2022/02/01 02:51:34;;;;;;;3.40;1.83;;;;;;;0.75;100.00;96883.88;4981930;28;20149;-60
2022/02/01 02:54:13;;;;;;;2.95;1.55;;;;;;;0.87;100.00;96878.00;4983356;28;20038;-65
2022/02/01 02:56:45;;;;;;;5.15;1.55;;;;;;;0.97;100.00;96898.59;5000738;28;20038;-67
2022/02/01 02:59:13;;;;;;;2.75;1.38;;;;;;;0.98;100.00;96897.50;4989584;28;20046;-67
2022/02/01 03:01:40;;;;;;;6.68;1.73;;;;;;;0.86;100.00;96918.75;5002206;28;20052;-67
2022/02/01 03:04:05;;;;;;;6.93;1.63;;;;;;;0.98;100.00;96910.97;4996185;28;20052;-60
2022/02/01 03:06:31;;;;;;;4.03;2.05;;;;;;;0.96;100.00;96910.47;5000575;28;20046;-66
2022/02/01 03:08:56;;;;;;;3.40;2.20;;;;;;;0.91;100.00;96921.38;5002360;28;20042;-67
2022/02/01 03:11:22;;;;;;;7.97;2.17;;;;;;;0.79;100.00;96918.34;4995029;28;20619;-64
2022/02/01 03:13:52;;;;;;;3.53;1.92;;;;;;;0.82;100.00;96929.34;4994840;28;20072;-67
2022/02/01 03:21:39;;;;;;;5.40;2.20;;;;;;;0.81;100.00;96938.53;4998743;28;20042;-66
2022/02/01 03:24:05;;;;;;;6.20;2.85;;;;;;;0.79;100.00;96958.78;4995434;28;20052;-64
2022/02/01 03:26:31;;;;;;;5.93;2.42;;;;;;;0.73;100.00;96961.56;5001306;28;20057;-65
2022/02/01 03:28:56;;;;;;;6.28;1.70;;;;;;;0.68;100.00;96961.66;5008749;28;20037;-66
2022/02/01 03:31:22;;;;;;;6.47;2.25;;;;;;;0.73;100.00;96993.13;5012181;28;20061;-64
2022/02/01 03:33:47;;;;;;;4.75;1.98;;;;;;;0.74;100.00;96987.44;5002907;28;20064;-66
2022/02/01 03:36:13;;;;;;;2.67;1.65;;;;;;;0.70;100.00;96978.38;4992571;28;20041;-66
2022/02/01 03:38:39;;;;;;;12.48;2.13;;;;;;;0.68;100.00;96974.34;4998702;28;20057;-65
2022/02/01 03:41:05;;;;;;;6.15;2.03;;;;;;;0.60;100.00;96969.66;4991767;28;20045;-65
2022/02/01 03:43:30;;;;;;;7.50;2.00;;;;;;;0.64;100.00;96986.81;5001440;28;20621;-66
2022/02/01 03:45:56;;;;;;;7.03;2.38;;;;;;;0.68;100.00;96990.53;5000461;28;20157;-66
2022/02/01 03:48:22;;;;;;;3.30;1.90;;;;;;;0.76;100.00;96973.69;4993298;28;20461;-65
2022/02/01 03:50:47;;;;;;;5.07;2.20;;;;;;;0.62;100.00;96975.53;5002983;28;20124;-66
2022/02/01 03:53:13;;;;;;;6.95;2.67;;;;;;;0.58;100.00;96975.34;4992500;28;20115;-67
2022/02/01 03:55:39;;;;;;;6.38;2.20;;;;;;;0.58;100.00;96975.34;5003389;28;20034;-65
2022/02/01 03:58:05;;;;;;;6.47;1.92;;;;;;;0.64;100.00;96986.81;5006422;28;20042;-63
2022/02/01 04:00:31;;;;;;;6.03;2.30;;;;;;;0.58;100.00;96991.50;5006079;28;20407;-65
2022/02/01 04:02:59;;;;;;;4.68;2.03;;;;;;;0.67;100.00;96981.66;5000706;28;20128;-65
2022/02/01 04:05:25;;;;;;;8.05;2.13;;;;;;;0.68;100.00;96995.91;4996321;28;20084;-66
2022/02/01 04:07:50;;;;;;;5.82;2.15;;;;;;;0.64;100.00;97000.31;5000483;28;20462;-64
2022/02/01 04:10:19;;;;;;;6.72;2.30;;;;;;;0.70;100.00;97008.03;4995100;28;20571;-64
2022/02/01 04:12:46;;;;;;;3.40;1.92;;;;;;;0.75;100.00;97001.72;4997801;28;20046;-65
2022/02/01 04:15:11;;;;;;;4.10;1.60;;;;;;;0.78;100.00;97000.34;4994421;28;20044;-66
2022/02/01 04:17:38;;;;;;;5.00;2.40;;;;;;;0.68;100.00;96998.59;4995440;28;20802;-65
2022/02/01 04:20:05;;;;;;;9.23;2.47;;;;;;;0.72;100.00;97011.22;5007676;28;20060;-62
2022/02/01 04:22:30;;;;;;;12.25;2.50;;;;;;;0.64;100.00;97017.28;5000698;28;20527;-64
2022/02/01 04:24:56;;;;;;;6.30;2.20;;;;;;;0.65;100.00;97028.84;5000705;28;20065;-64
2022/02/01 04:30:00;;;;;;;10.05;2.63;;;;;;;0.64;100.00;97019.19;4999874;28;20053;-66
2022/02/01 04:32:26;;;;;;;8.20;2.83;;;;;;;0.71;100.00;97031.16;4993071;28;20121;-66
2022/02/01 04:34:59;;;;;;;15.40;2.95;;;;;;;0.71;100.00;97043.88;5000849;28;20447;-67
2022/02/01 04:37:26;;;;;;;13.45;2.38;;;;;;;0.75;100.00;97042.16;4995342;28;20041;-66
2022/02/01 04:39:51;;;;;;;11.30;2.70;;;;;;;0.72;100.00;97040.88;5000827;28;20368;-64
2022/02/01 04:42:17;;;;;;;9.70;3.15;;;;;;;0.71;100.00;97058.13;4995636;28;20045;-67
2022/02/01 04:44:42;;;;;;;6.82;2.75;;;;;;;0.70;100.00;97063.81;4999297;28;20046;-66
2022/02/01 04:47:08;;;;;;;6.43;2.50;;;;;;;0.67;100.00;97064.44;4990158;28;20054;-65
2022/02/01 04:49:33;;;;;;;4.53;2.38;;;;;;;0.58;100.00;97072.38;5000125;28;20053;-64
2022/02/01 04:51:58;;;;;;;7.97;2.53;;;;;;;0.75;100.00;97083.41;4998611;28;20058;-67
2022/02/01 04:54:24;;;;;;;10.20;3.00;;;;;;;0.75;100.00;97085.31;4989470;28;20050;-64
2022/02/01 04:56:49;;;;;;;4.70;2.22;;;;;;;0.74;100.00;97073.72;5000853;28;20038;-66
2022/02/01 04:59:15;;;;;;;10.05;2.60;;;;;;;0.74;100.00;97073.72;4992149;28;20034;-65
2022/02/01 05:01:40;;;;;;;8.88;2.55;;;;;;;0.75;100.00;97071.84;4990479;28;20038;-66
2022/02/01 05:04:07;;;;;;;9.48;2.28;;;;;;;0.64;100.00;97081.19;4995505;28;20107;-66
2022/02/01 05:06:33;;;;;;;7.35;3.03;;;;;;;0.62;100.00;97096.84;5000418;28;20049;-67
2022/02/01 05:08:58;;;;;;;5.82;2.25;;;;;;;0.70;100.00;97097.00;4999533;28;20398;-66
2022/02/01 05:11:24;;;;;;;11.07;3.25;;;;;;;0.67;100.00;97089.47;5001570;28;20054;-63
2022/02/01 05:16:42;;;;;;;7.43;2.72;;;;;;;0.60;100.00;97097.13;4999029;28;20046;-66
2022/02/01 05:19:09;;;;;;;12.05;2.67;;;;;;;0.67;100.00;97104.88;5000625;28;20066;-63
2022/02/01 05:21:37;;;;;;;5.55;2.17;;;;;;;0.69;100.00;97108.06;5006706;28;20050;-65
2022/02/01 05:24:03;;;;;;;9.23;2.60;;;;;;;0.69;100.00;97111.56;5017071;28;20041;-62
2022/02/01 05:26:30;;;;;;;10.35;3.20;;;;;;;0.67;100.00;97112.94;5025894;28;20593;-62
2022/02/01 05:28:56;;;;;;;11.23;2.63;;;;;;;0.67;100.00;97113.75;5007655;28;20049;-66
2022/02/01 05:31:23;;;;;;;8.45;2.70;;;;;;;0.64;100.00;97114.31;4996371;28;20494;-64
2022/02/01 05:33:49;;;;;;;11.02;2.50;;;;;;;0.66;100.00;97122.91;5005989;28;20045;-63
2022/02/01 05:36:14;;;;;;;9.55;2.65;;;;;;;0.65;100.00;97137.50;4998246;28;20042;-64
2022/02/01 05:38:40;;;;;;;9.48;3.50;;;;;;;0.70;100.00;97125.81;5004610;28;20371;-64
2022/02/01 05:41:08;;;;;;;7.93;3.05;;;;;;;0.72;100.00;97129.84;5000309;28;20045;-66
2022/02/01 05:43:34;;;;;;;9.35;2.70;;;;;;;0.59;100.00;97127.06;5002954;28;20580;-65
2022/02/01 05:46:00;;;;;;;10.38;3.05;;;;;;;0.60;100.00;97144.88;5006626;28;20081;-67
2022/02/01 05:48:26;;;;;;;8.70;3.10;;;;;;;0.59;100.00;97146.75;4997984;28;20107;-65
2022/02/01 05:50:54;;;;;;;10.18;3.70;;;;;;;0.55;100.00;97151.91;5004757;28;20042;-66
2022/02/01 05:53:20;;;;;;;8.27;2.95;;;;;;;0.51;100.00;97153.59;4996121;28;20072;-64
2022/02/01 05:55:48;;;;;;;8.38;2.83;;;;;;;0.58;100.00;97150.53;5005723;28;20041;-66
2022/02/01 05:58:13;;;;;;;10.75;4.05;;;;;;;0.55;100.00;97145.72;5000126;28;20131;-65
2022/02/01 06:00:40;;;;;;;12.15;3.58;;;;;;;0.55;100.00;97141.13;5002291;28;20086;-66
2022/02/01 06:03:06;;;;;;;6.97;3.28;;;;;;;0.54;100.00;97144.94;4995408;28;20036;-65
2022/02/01 06:05:32;;;;;;;12.63;3.80;;;;;;;0.53;100.00;97154.09;4995297;28;20048;-65
2022/02/01 06:07:58;;;;;;;9.30;3.33;;;;;;;0.53;100.00;97164.88;5004546;28;20137;-67
2022/02/01 06:10:23;;;;;;;9.98;3.72;;;;;;;0.55;100.00;97172.69;5000206;28;21161;-66
2022/02/01 06:12:49;;;;;;;13.02;3.75;;;;;;;0.45;100.00;97178.19;5005684;28;20432;-66
2022/02/01 06:15:19;;;;;;;9.77;3.88;;;;;;;0.44;100.00;97171.22;5000884;28;20566;-65
2022/02/01 06:17:44;;;;;;;;;;;;;;;0.36;100.00;97186.94;5007020;28;20045;-66
2022/02/01 06:20:12;;;;;;;11.55;3.28;;;;;;;0.49;100.00;97187.31;5001406;28;19948;-65
2022/02/01 06:22:38;;;;;;;13.95;3.80;;;;;;;0.44;100.00;97190.88;5002458;28;20462;-65
2022/02/01 06:25:05;;;;;;;8.98;3.63;;;;;;;0.39;100.00;97204.41;4992059;28;20120;-64
2022/02/01 06:27:30;;;;;;;17.52;3.42;;;;;;;0.37;100.00;97199.28;4998523;28;20656;-64
2022/02/01 06:29:56;;;;;;;11.95;3.65;;;;;;;0.42;100.00;97189.56;5000512;28;20052;-64
2022/02/01 06:32:22;;;;;;;15.70;4.25;;;;;;;0.32;100.00;97188.56;4987060;28;20054;-64
2022/02/01 06:34:47;;;;;;;10.75;3.08;;;;;;;0.44;100.00;97190.06;5000841;28;20503;-65
2022/02/01 06:37:13;;;;;;;12.88;3.83;;;;;;;0.46;100.00;97207.56;4995987;28;20073;-63
2022/02/01 06:39:40;;;;;;;9.35;2.92;;;;;;;0.45;100.00;97207.84;5002397;28;20050;-65
2022/02/01 06:42:07;;;;;;;7.97;3.00;;;;;;;0.43;100.00;97215.41;4988494;28;20568;-64
2022/02/01 06:44:33;;;;;;;8.85;2.97;;;;;;;0.44;100.00;97215.13;5000819;28;20777;-65
2022/02/01 06:46:58;;;;;;;12.57;3.30;;;;;;;0.47;100.00;97224.50;4996749;28;20052;-64
2022/02/01 06:49:24;;;;;;;9.63;3.42;;;;;;;0.50;100.00;97216.66;4994905;28;20054;-63
2022/02/01 06:51:49;;;;;;;9.77;3.17;;;;;;;0.47;100.00;97209.16;4996211;28;20033;-65
2022/02/01 06:54:15;;;;;;;15.48;3.40;;;;;;;0.50;100.00;97211.25;4991289;28;20053;-64
2022/02/01 06:56:40;;;;;;;12.77;2.95;;;;;;;0.40;100.00;97213.28;4998112;28;20125;-65
2022/02/01 06:59:07;;;;;;;12.30;3.33;;;;;;;0.50;100.00;97219.34;4997114;28;20045;-64
2022/02/01 07:01:33;;;;;;;8.98;3.97;;;;;;;0.47;100.00;97228.03;4995959;28;20046;-65
2022/02/01 07:03:59;;;;;;;13.88;3.80;;;;;;;0.64;100.00;97211.38;5017685;28;20044;-65
2022/02/01 07:06:26;;;;;;;5.45;2.88;;;;;;;0.63;100.00;97220.56;5002444;28;20050;-64
2022/02/01 07:08:53;;;;;;;12.40;3.25;;;;;;;0.72;100.00;97220.69;5001948;28;20137;-65
2022/02/01 07:11:20;;;;;;;12.98;3.92;;;;;;;0.65;100.00;97215.69;4995708;28;20498;-64
2022/02/01 07:13:47;;;;;;;12.02;3.70;;;;;;;0.56;100.00;97238.97;4984641;28;20042;-64
2022/02/01 07:16:13;;;;;;;17.33;4.00;;;;;;;0.65;100.00;97233.72;4993612;28;20056;-65
2022/02/01 07:18:39;;;;;;;9.82;3.28;;;;;;;0.48;100.00;97248.50;5001255;28;20038;-61
2022/02/01 07:21:04;;;;;;;14.80;3.38;;;;;;;0.41;100.00;97242.63;4992334;28;20045;-63
2022/02/01 07:23:31;;;;;;;13.68;3.90;;;;;;;0.45;100.00;97243.69;5002191;28;20718;-64
2022/02/01 07:25:57;;;;;;;10.15;3.28;;;;;;;0.46;100.00;97266.84;4999223;28;20045;-64
2022/02/01 07:28:25;;;;;;;13.27;3.55;;;;;;;0.52;100.00;97254.09;4994987;28;20068;-63
2022/02/01 07:30:51;;;;;;;14.55;3.55;;;;;;;0.56;100.00;97264.03;5014598;28;20044;-64
2022/02/01 07:33:17;;;;;;;12.30;3.53;;;;;;;0.47;100.00;97268.47;5004029;28;20060;-63
2022/02/01 07:35:45;;;;;;;14.90;3.70;;;;;;;0.51;100.00;97279.47;5000801;28;20049;-65
2022/02/01 07:38:13;;;;;;;12.55;3.55;;;;;;;0.52;100.00;97289.16;4995223;28;20049;-65
2022/02/01 07:40:39;;;;;;;16.27;3.60;;;;;;;0.47;100.00;97286.50;5003343;28;20042;-65
2022/02/01 07:43:05;;;;;;;10.85;3.17;;;;;;;0.40;100.00;97294.94;4997273;28;20145;-63
2022/02/01 07:45:31;;;;;;;16.15;3.40;;;;;;;0.37;100.00;97301.69;5000583;28;20643;-64
2022/02/01 07:47:59;;;;;;;10.77;3.17;;;;;;;0.33;100.00;97314.16;5001153;28;20052;-64
2022/02/01 07:50:26;;;;;;;15.77;4.35;;;;;;;0.35;100.00;97314.66;4992505;28;20141;-66
2022/02/01 07:52:52;;;;;;;14.85;3.50;;;;;;;0.38;100.00;97305.22;4999246;28;20041;-66
2022/02/01 07:55:17;;;;;;;15.43;3.78;;;;;;;0.16;100.00;97300.28;4992807;28;20042;-64
2022/02/01 07:57:42;;;;;;;9.75;3.92;;;;;;;0.09;100.00;97299.81;4994920;28;20053;-64
2022/02/01 08:00:10;;;;;;;14.13;4.05;;;;;;;0.05;100.00;97301.50;4995160;28;20125;-65
2022/02/01 08:02:36;;;;;;;17.92;4.15;;;;;;;0.11;100.00;97311.13;4989790;28;20053;-66
2022/02/01 08:05:02;;;;;;;20.20;4.40;;;;;;;0.06;100.00;97320.06;4991188;28;20042;-65
2022/02/01 08:07:28;;;;;;;12.52;4.07;;;;;;;0.09;100.00;97310.59;4995108;28;20049;-64
2022/02/01 08:09:58;;;;;;;15.18;4.45;;;;;;;0.12;100.00;97312.72;5001305;28;20034;-62
2022/02/01 08:17:42;;;;;;;18.55;4.57;;;;;;;0.14;100.00;97305.16;5000919;28;20049;-64
2022/02/01 08:20:11;;;;;;;16.33;4.38;;;;;;;0.17;100.00;97302.72;4993492;28;20041;-64
2022/02/01 08:25:10;;;;;;;14.00;4.55;;;;;;;0.26;100.00;97294.81;4992462;28;20570;-65
2022/02/01 08:27:36;;;;;;;18.73;4.60;;;;;;;0.32;100.00;97299.06;5000388;28;20144;-65
2022/02/01 08:30:03;;;;;;;11.70;4.50;;;;;;;0.36;100.00;97296.59;5000717;28;20072;-65
2022/02/01 08:32:29;;;;;;;15.20;4.60;;;;;;;0.36;100.00;97291.19;4997558;28;20038;-65
2022/02/01 08:34:55;;;;;;;10.80;3.78;;;;;;;0.50;100.00;97288.63;4999801;28;20120;-64
2022/02/01 08:37:20;;;;;;;19.50;5.25;;;;;;;0.65;100.00;97295.75;4990708;28;20045;-64
2022/02/01 08:39:47;;;;;;;18.45;4.60;;;;;;;0.59;100.00;97292.31;4989198;28;20050;-64
2022/02/01 08:42:12;;;;;;;15.40;4.07;;;;;;;0.52;100.00;97300.75;4992435;28;20116;-64
2022/02/01 08:44:38;;;;;;;10.05;4.05;;;;;;;0.57;100.00;97308.75;4999066;28;20574;-64
2022/02/01 08:47:04;;;;;;;11.60;4.35;;;;;;;0.53;100.00;97301.53;4993769;28;20177;-63
2022/02/01 08:49:30;;;;;;;12.93;4.25;;;;;;;0.57;100.00;97291.78;4998008;28;20037;-63
2022/02/01 08:52:02;;;;;;;13.73;4.35;;;;;;;0.53;100.00;97290.75;4998764;28;20046;-63
2022/02/01 08:54:29;;;;;;;14.98;3.78;;;;;;;0.70;100.00;97284.91;4993062;28;20046;-64
2022/02/01 08:59:39;;;;;;;26.42;3.90;;;;;;;0.74;100.00;97300.22;4997516;28;20103;-64
2022/02/01 09:02:05;;;;;;;13.80;4.28;;;;;;;0.75;100.00;97304.50;4994885;28;20046;-64
2022/02/01 09:04:31;;;;;;;15.40;4.10;;;;;;;0.85;100.00;97313.59;4994842;28;20053;-65
2022/02/01 09:06:59;;;;;;;16.77;3.63;;;;;;;0.98;100.00;97318.28;4999501;28;20045;-63
2022/02/01 09:09:26;;;;;;;14.70;3.92;;;;;;;0.92;100.00;97328.31;4988038;28;20281;-65
2022/02/01 09:11:51;;;;;;;14.00;3.50;;;;;;;0.86;100.00;97325.97;4996453;28;20070;-65
2022/02/01 09:14:17;;;;;;;18.70;3.60;;;;;;;0.87;100.00;97336.47;4992354;28;20125;-65
2022/02/01 09:16:43;;;;;;;18.92;3.70;;;;;;;0.84;100.00;97323.56;4993586;28;20049;-65
2022/02/01 09:19:10;;;;;;;9.85;3.40;;;;;;;0.75;100.00;97333.38;4989982;28;20050;-64
2022/02/01 09:21:36;;;;;;;16.45;4.38;;;;;;;0.78;100.00;97324.72;4998896;28;20100;-64
2022/02/01 09:24:02;;;;;;;12.82;4.32;;;;;;;0.91;100.00;97324.00;4999726;28;20042;-64
2022/02/01 09:26:28;;;;;;;24.90;7.47;;;;;;;0.93;100.00;97318.34;4978479;28;20483;-63
2022/02/01 09:28:53;;;;;;;17.73;4.20;;;;;;;0.90;100.00;97348.56;4994321;28;20121;-65
2022/02/01 09:31:18;;;;;;;16.27;4.40;;;;;;;0.89;100.00;97341.59;4995235;28;20096;-66
2022/02/01 09:33:44;;;;;;;15.48;4.03;;;;;;;0.78;100.00;97349.00;5015417;28;20125;-63
2022/02/01 09:36:09;;;;;;;21.05;4.18;;;;;;;0.81;100.00;97345.72;4993985;28;20069;-65
2022/02/01 09:38:36;;;;;;;14.18;3.72;;;;;;;0.80;100.00;97330.63;4994590;28;20045;-63
2022/02/01 09:41:03;;;;;;;12.40;3.67;;;;;;;0.89;100.00;97349.69;4999177;28;20081;-64
2022/02/01 09:43:29;;;;;;;14.73;5.32;;;;;;;0.89;100.00;97346.97;4998738;28;20042;-65
2022/02/01 09:45:56;;;;;;;15.00;3.45;;;;;;;0.85;100.00;97345.97;5000999;28;20052;-65
2022/02/01 09:48:22;;;;;;;13.63;3.35;;;;;;;0.99;100.00;97348.75;5008959;28;20260;-64
2022/02/01 09:50:49;;;;;;;23.38;4.75;;;;;;;1.12;100.00;97346.16;4999684;28;20414;-65
2022/02/01 09:53:15;;;;;;;31.67;9.07;;;;;;;1.08;100.00;97358.63;4983145;28;20073;-64
2022/02/01 09:55:40;;;;;;;17.38;4.13;;;;;;;1.16;100.00;97359.06;4995659;28;20042;-64
2022/02/01 09:58:06;;;;;;;21.42;7.13;;;;;;;1.27;100.00;97377.53;4995405;28;20116;-65
2022/02/01 10:00:36;;;;;;;17.23;4.88;;;;;;;1.16;100.00;97354.47;5003616;28;20069;-65
2022/02/01 10:03:03;;;;;;;10.80;2.90;;;;;;;1.33;100.00;97370.16;5002481;28;20046;-64
2022/02/01 10:05:28;;;;;;;14.40;3.10;;;;;;;1.31;100.00;97358.84;4996499;28;20053;-63
2022/02/01 10:07:57;;;;;;;12.95;3.03;;;;;;;1.40;100.00;97354.41;4994047;28;20483;-65
2022/02/01 10:10:28;;;;;;;18.10;4.13;;;;;;;1.49;100.00;97351.88;4991835;28;20057;-65
2022/02/01 10:13:16;;;;;;;14.48;2.95;;;;;;;1.29;100.00;97334.84;5003448;28;20046;-64
2022/02/01 10:16:11;;;;;;;10.82;3.75;;;;;;;1.10;100.00;97325.97;5002331;28;20049;-64
2022/02/01 10:18:37;;;;;;;15.45;3.63;;;;;;;0.95;100.00;97343.94;5003207;28;20070;-64
2022/02/01 10:21:07;;;;;;;16.52;3.00;;;;;;;1.29;100.00;97344.84;5001601;28;20512;-63
2022/02/01 10:23:34;;;;;;;10.75;4.15;;;;;;;1.38;100.00;97337.72;4999716;28;20185;-65
2022/02/01 10:26:01;;;;;;;15.00;3.28;;;;;;;1.18;100.00;97333.41;5002885;28;20145;-62
2022/02/01 10:28:40;;;;;;;18.70;4.88;;;;;;;1.18;100.00;97327.19;4994801;28;20049;-64
2022/02/01 10:31:20;;;;;;;13.27;3.78;;;;;;;1.21;100.00;97326.63;4993780;28;20133;-63
2022/02/01 10:36:18;;;;;;;11.93;3.22;;;;;;;1.29;100.00;97329.47;4996482;28;20053;-66
2022/02/01 10:38:56;;;;;;;18.73;3.10;;;;;;;1.26;100.00;97343.56;5004985;28;20038;-65
2022/02/01 10:41:22;;;;;;;19.08;3.67;;;;;;;1.19;100.00;97344.97;5009708;28;20056;-66
2022/02/01 10:43:55;;;;;;;19.70;3.83;;;;;;;1.09;100.00;97335.94;4999902;28;20037;-63
2022/02/01 10:46:22;;;;;;;12.18;3.50;;;;;;;1.16;100.00;97322.09;4992228;28;20045;-65
2022/02/01 10:48:50;;;;;;;15.10;3.30;;;;;;;1.21;100.00;97338.22;4995352;28;20136;-63
2022/02/01 10:51:19;;;;;;;13.50;3.92;;;;;;;1.14;100.00;97325.06;4995631;28;20097;-63
2022/02/01 10:53:45;;;;;;;15.07;3.80;;;;;;;1.18;100.00;97329.91;4996825;28;20101;-62
2022/02/01 10:56:13;;;;;;;17.58;4.68;;;;;;;1.09;100.00;97333.22;4991558;28;20052;-60
2022/02/01 10:58:39;;;;;;;15.60;4.93;;;;;;;1.08;100.00;97328.94;5005246;28;20030;-62
2022/02/01 11:01:06;;;;;;;13.88;4.63;;;;;;;1.08;100.00;97325.41;5011498;28;20049;-62
2022/02/01 11:03:32;;;;;;;18.58;3.72;;;;;;;1.09;100.00;97324.34;5013711;28;20042;-61
2022/02/01 11:06:00;;;;;;;14.23;4.05;;;;;;;1.10;100.00;97310.56;5000988;28;20049;-60
2022/02/01 11:08:30;;;;;;;14.02;4.18;;;;;;;1.12;100.00;97331.88;5007856;28;20075;-62
2022/02/01 11:10:57;;;;;;;24.65;5.65;;;;;;;1.14;100.00;97327.78;5001836;28;20095;-62
2022/02/01 11:13:35;;;;;;;16.27;5.32;;;;;;;1.12;100.00;97321.06;5003157;28;20946;-60
2022/02/01 11:16:02;;;;;;;18.20;3.88;;;;;;;1.16;100.00;97322.09;4993752;28;20049;-61
2022/02/01 11:18:30;;;;;;;12.52;3.63;;;;;;;1.18;100.00;97324.50;4994006;28;20762;-61
2022/02/01 11:21:10;;;;;;;15.48;3.95;;;;;;;1.21;100.00;97327.44;4999002;28;20053;-61
2022/02/01 11:23:53;;;;;;;14.70;3.22;;;;;;;1.21;100.00;97334.72;4996193;28;20050;-59
2022/02/01 11:26:26;;;;;;;19.98;4.75;;;;;;;1.27;100.00;97323.56;4991492;28;20106;-60
2022/02/01 11:29:29;;;;;;;14.60;3.45;;;;;;;1.14;100.00;97335.06;5001596;28;20337;-63
2022/02/01 11:31:47;;;;;;;14.65;3.08;;;;;;;1.39;100.00;97336.63;4998360;28;20435;-60
2022/02/01 11:34:27;;;;;;;16.02;3.28;;;;;;;1.42;100.00;97346.81;4997543;28;20065;-61
2022/02/01 11:36:57;;;;;;;13.77;3.45;;;;;;;1.44;100.00;97330.34;5011501;28;20133;-62
2022/02/01 11:39:22;;;;;;;15.05;3.13;;;;;;;1.23;100.00;97322.53;5000230;28;20141;-61
2022/02/01 11:41:50;;;;;;;16.95;5.53;;;;;;;1.31;100.00;97311.09;5001842;28;20137;-62
2022/02/01 11:44:26;;;;;;;14.85;2.88;;;;;;;1.26;100.00;97308.47;4993605;28;20121;-59
2022/02/01 11:47:16;;;;;;;8.55;2.97;;;;;;;1.26;100.00;97294.97;5000970;28;20471;-61
2022/02/01 11:49:55;;;;;;;7.15;2.95;;;;;;;1.30;100.00;97276.31;4995690;28;20042;-61
2022/02/01 11:52:22;;;;;;;13.38;2.65;;;;;;;1.34;100.00;97280.03;4993987;28;20038;-62
2022/02/01 11:54:49;;;;;;;10.55;3.00;;;;;;;1.17;100.00;97256.25;4993353;28;20368;-61
2022/02/01 11:57:26;;;;;;;12.07;2.30;;;;;;;1.08;100.00;97256.09;4994413;28;20061;-60
2022/02/01 11:59:53;;;;;;;11.45;2.75;;;;;;;1.22;100.00;97253.47;5000358;28;20057;-61
2022/02/01 12:02:33;;;;;;;13.52;2.83;;;;;;;1.25;99.61;97247.47;4995667;28;20073;-61
2022/02/01 12:05:14;;;;;;;8.63;2.50;;;;;;;1.26;98.99;97242.88;4997428;28;20050;-61
2022/02/01 12:07:41;;;;;;;20.23;3.28;;;;;;;1.33;98.17;97233.34;4999718;28;20053;-62
2022/02/01 12:10:14;;;;;;;15.68;2.97;;;;;;;1.21;100.00;97222.19;4990082;28;20430;-60
2022/02/01 12:12:41;;;;;;;7.05;2.17;;;;;;;1.24;99.92;97215.38;4999670;28;20509;-61
2022/02/01 12:15:07;;;;;;;11.43;3.05;;;;;;;1.36;99.15;97217.66;4992236;28;20103;-61
2022/02/01 12:17:56;;;;;;;7.65;2.13;;;;;;;1.32;98.82;97204.72;4999330;28;20046;-61
2022/02/01 12:20:23;;;;;;;12.45;2.33;;;;;;;1.19;100.00;97212.75;4992024;28;20050;-60
2022/02/01 12:23:14;;;;;;;13.38;2.63;;;;;;;1.23;98.72;97195.72;4999566;28;20042;-62
2022/02/01 12:25:39;;;;;;;13.88;3.30;;;;;;;1.24;98.20;97210.81;4974382;28;20511;-61
2022/02/01 12:28:20;;;;;;;8.02;2.40;;;;;;;1.19;98.81;97212.75;4993172;28;20156;-61
2022/02/01 12:30:46;;;;;;;9.55;3.25;;;;;;;1.11;98.49;97214.25;4997045;28;20038;-61
2022/02/01 12:33:21;;;;;;;14.55;2.72;;;;;;;1.13;99.15;97212.88;4995318;28;20178;-62
2022/02/01 12:35:51;;;;;;;8.00;3.03;;;;;;;1.11;100.00;97206.94;5004246;28;20037;-63
2022/02/01 12:38:21;;;;;;;17.13;3.15;;;;;;;1.03;99.87;97193.34;4995517;28;20042;-61
2022/02/01 12:41:01;;;;;;;9.73;2.08;;;;;;;1.06;100.00;97171.16;4998437;28;20042;-60
2022/02/01 12:43:30;;;;;;;9.60;2.28;;;;;;;1.08;99.46;97171.66;4995931;28;20065;-62
2022/02/01 12:46:17;;;;;;;8.00;2.35;;;;;;;1.10;100.00;97159.47;4999289;28;20052;-62
2022/02/01 12:48:48;;;;;;;8.40;2.10;;;;;;;1.25;100.00;97146.84;4997674;28;20491;-62
2022/02/01 12:51:14;;;;;;;9.10;2.40;;;;;;;1.29;99.30;97161.34;4992861;28;20077;-60
2022/02/01 12:53:43;;;;;;;11.02;1.77;;;;;;;1.29;98.26;97156.75;4998999;28;20088;-62
2022/02/01 12:56:14;;;;;;;3.45;1.48;;;;;;;1.29;99.38;97147.84;4993904;28;20120;-62
2022/02/01 12:58:40;;;;;;;10.20;2.13;;;;;;;1.17;99.93;97142.94;4999844;28;20408;-61
2022/02/01 13:01:06;;;;;;;13.30;2.20;;;;;;;1.14;100.00;97160.50;4995487;28;20072;-61
2022/02/01 13:03:44;;;;;;;6.45;1.90;;;;;;;1.17;100.00;97144.81;5003131;28;20150;-61
2022/02/01 13:06:12;;;;;;;12.30;2.90;;;;;;;1.39;99.57;97142.28;4990099;28;20042;-62
2022/02/01 13:12:55;;;;;;;10.02;2.10;;;;;;;1.39;98.92;97126.09;4997798;28;20057;-61
2022/02/01 13:14:49;;;;;;;6.75;2.20;;;;;;;1.29;97.22;97128.97;4992698;28;20825;-61
2022/02/01 13:20:11;;;;;;;13.43;2.83;;;;;;;1.48;96.97;97121.63;4974322;28;20053;-62
2022/02/01 13:22:50;;;;;;;12.95;3.30;;;;;;;1.62;94.93;97118.94;4997420;28;20046;-61